createdAt,value
2018-05-02T14:28:29.777Z,27.43
2018-05-02T14:30:59.848Z,17.73
2018-05-02T14:33:31.343Z,21.50
2018-05-02T14:36:01.000Z,20.27
2018-05-02T14:38:31.151Z,28.00
2018-05-02T14:41:01.327Z,23.30
2018-05-02T14:43:31.050Z,23.87
2018-05-02T14:46:02.854Z,33.70
2018-05-02T14:48:32.837Z,23.43
2018-05-02T14:51:06.093Z,22.97
2018-05-02T14:53:44.216Z,17.57
2018-05-02T14:56:29.530Z,21.23
2018-05-02T14:58:59.075Z,23.67
2018-05-02T15:01:29.584Z,23.90
2018-05-02T15:04:00.107Z,22.50
2018-05-02T15:06:29.632Z,29.83
2018-05-02T15:08:59.211Z,23.13
2018-05-02T15:11:37.250Z,22.73
2018-05-02T15:14:06.919Z,18.23
2018-05-02T15:16:41.288Z,20.20
2018-05-02T15:19:11.393Z,20.43
2018-05-02T15:21:41.205Z,26.37
2018-05-02T15:24:14.607Z,19.87
2018-05-02T15:26:44.209Z,25.20
2018-05-02T15:29:13.776Z,22.20
2018-05-02T15:31:44.258Z,19.00
2018-05-02T15:34:13.837Z,17.50
2018-05-02T15:36:43.349Z,18.07
2018-05-02T15:39:12.976Z,21.67
2018-05-02T15:41:42.552Z,20.63
2018-05-02T15:44:12.823Z,22.00
2018-05-02T15:46:42.319Z,21.50
2018-05-02T15:49:11.863Z,20.37
2018-05-02T15:51:44.985Z,26.47
2018-05-02T15:57:39.024Z,16.50
2018-05-02T16:00:12.038Z,24.87
2018-05-02T16:06:12.688Z,19.10
2018-05-02T16:08:45.859Z,16.03
2018-05-02T16:11:15.560Z,22.07
2018-05-02T16:13:44.998Z,20.73
2018-05-02T16:19:36.568Z,20.77
2018-05-02T16:22:11.213Z,22.57
2018-05-02T16:24:43.992Z,23.80
2018-05-02T16:27:13.701Z,17.20
2018-05-02T16:29:43.265Z,11.80
2018-05-02T16:32:13.652Z,19.23
2018-05-02T16:34:43.230Z,20.13
2018-05-02T16:37:12.867Z,15.97
2018-05-02T16:39:42.752Z,16.00
2018-05-02T16:42:12.288Z,16.17
2018-05-02T16:44:41.913Z,14.07
2018-05-02T16:47:12.245Z,20.97
2018-05-02T16:49:41.940Z,13.43
2018-05-02T16:52:11.545Z,18.27
2018-05-02T16:54:41.940Z,14.10
2018-05-02T16:57:11.528Z,14.67
2018-05-02T16:59:41.101Z,12.73
2018-05-02T17:02:10.893Z,18.73
2018-05-02T17:04:40.466Z,17.07
2018-05-02T17:07:10.644Z,16.13
2018-05-02T17:15:34.991Z,24.83
2018-05-02T17:18:04.508Z,14.87
2018-05-02T17:20:34.981Z,11.07
2018-05-02T17:23:04.458Z,12.10
2018-05-02T17:25:33.834Z,15.70
2018-05-02T17:28:03.426Z,12.10
2018-05-02T17:30:32.792Z,12.83
2018-05-02T17:33:02.168Z,11.37
2018-05-02T17:35:33.489Z,12.77
2018-05-02T17:38:08.105Z,11.90
2018-05-02T17:40:59.266Z,14.70
2018-05-02T17:43:33.887Z,12.00
2018-05-02T17:46:06.037Z,14.97
2018-05-02T17:48:39.924Z,13.33
2018-05-02T17:51:14.089Z,13.60
2018-05-02T17:53:44.005Z,10.83
2018-05-02T17:56:14.491Z,11.30
2018-05-02T17:58:45.930Z,13.87
2018-05-02T18:01:15.643Z,11.47
2018-05-02T18:03:45.110Z,11.93
2018-05-02T18:06:15.127Z,17.33
2018-05-02T18:08:46.617Z,17.83
2018-05-02T18:11:16.847Z,14.27
2018-05-02T18:13:46.220Z,13.87
2018-05-02T18:16:15.676Z,11.17
2018-05-02T18:18:45.129Z,20.40
2018-05-02T18:21:14.617Z,17.13
2018-05-02T18:23:44.005Z,19.80
2018-05-02T18:26:13.439Z,18.27
2018-05-02T18:28:42.787Z,14.20
2018-05-02T18:31:12.162Z,19.90
2018-05-02T18:33:48.327Z,21.53
2018-05-02T18:36:18.034Z,17.47
2018-05-02T18:38:47.592Z,13.83
2018-05-02T18:41:16.950Z,16.07
2018-05-02T18:43:46.353Z,19.17
2018-05-02T18:46:16.483Z,20.00
2018-05-02T18:48:45.824Z,14.70
2018-05-02T18:51:16.701Z,14.90
2018-05-02T18:53:46.060Z,13.50
2018-05-02T18:56:15.435Z,14.53
2018-05-02T18:58:44.841Z,14.27
2018-05-02T19:01:14.692Z,15.50
2018-05-02T19:03:44.050Z,12.03
2018-05-02T19:06:13.718Z,9.33
2018-05-02T19:08:44.942Z,21.37
2018-05-02T19:11:15.367Z,14.87
2018-05-02T19:13:50.711Z,17.63
2018-05-02T19:16:20.192Z,16.10
2018-05-02T19:18:54.932Z,13.53
2018-05-02T19:21:25.217Z,21.07
2018-05-02T19:23:54.666Z,14.20
2018-05-02T19:26:30.163Z,15.10
2018-05-02T19:29:04.344Z,15.40
2018-05-02T19:31:39.064Z,13.30
2018-05-02T19:34:08.715Z,11.87
2018-05-02T19:36:38.088Z,8.63
2018-05-02T19:39:10.299Z,15.30
2018-05-02T19:41:45.024Z,12.37
2018-05-02T19:44:14.829Z,8.03
2018-05-02T19:46:44.176Z,10.97
2018-05-02T19:49:14.800Z,22.93
2018-05-02T19:51:51.223Z,11.70
2018-05-02T19:54:20.746Z,7.87
2018-05-02T19:56:50.780Z,6.57
2018-05-02T19:59:21.233Z,8.73
2018-05-02T20:01:56.626Z,10.17
2018-05-02T20:04:26.094Z,10.10
2018-05-02T20:06:56.321Z,13.62
2018-05-02T20:12:53.950Z,9.57
2018-05-02T20:15:37.816Z,14.73
2018-05-02T20:18:09.409Z,8.63
2018-05-02T20:20:39.393Z,5.80
2018-05-02T20:23:12.532Z,8.83
2018-05-02T20:25:42.170Z,8.00
2018-05-02T20:31:34.206Z,8.00
2018-05-02T20:34:05.901Z,8.17
2018-05-02T20:36:35.628Z,8.10
2018-05-02T20:39:11.672Z,8.07
2018-05-02T20:41:46.991Z,9.87
2018-05-02T20:44:17.098Z,6.57
2018-05-02T20:46:47.959Z,6.43
2018-05-02T20:49:21.148Z,11.47
2018-05-02T20:51:51.233Z,7.10
2018-05-02T20:54:21.159Z,7.90
2018-05-02T20:56:50.889Z,10.13
2018-05-02T21:02:41.208Z,8.73
2018-05-02T21:05:10.694Z,8.10
2018-05-02T21:07:40.041Z,9.07
2018-05-02T21:10:14.490Z,6.90
2018-05-02T21:12:46.233Z,9.10
2018-05-02T21:18:46.806Z,8.50
2018-05-02T21:21:16.921Z,12.20
2018-05-02T21:23:46.491Z,6.78
2018-05-02T21:26:15.910Z,10.00
2018-05-02T21:28:45.258Z,11.68
2018-05-02T21:31:19.104Z,9.47
2018-05-02T21:33:49.339Z,9.07
2018-05-02T21:36:37.328Z,7.43
2018-05-02T21:39:08.152Z,7.70
2018-05-02T21:41:37.682Z,10.60
2018-05-02T21:44:07.868Z,8.73
2018-05-02T21:46:37.319Z,8.23
2018-05-02T21:49:06.819Z,11.27
2018-05-02T21:51:36.297Z,10.33
2018-05-02T21:54:05.630Z,10.20
2018-05-02T21:56:35.003Z,12.17
2018-05-02T21:59:04.625Z,11.37
2018-05-02T22:01:34.789Z,10.37
2018-05-02T22:04:04.147Z,9.53
2018-05-02T22:06:37.867Z,13.00
2018-05-02T22:09:08.235Z,8.87
2018-05-02T22:11:38.925Z,9.17
2018-05-02T22:14:08.236Z,11.03
2018-05-02T22:16:37.583Z,10.37
2018-05-02T22:19:07.200Z,8.07
2018-05-02T22:21:36.587Z,11.33
2018-05-02T22:24:05.937Z,8.63
2018-05-02T22:26:36.095Z,9.27
2018-05-02T22:29:06.291Z,6.70
2018-05-02T22:31:35.643Z,9.37
2018-05-02T22:34:05.007Z,7.33
2018-05-02T22:36:34.335Z,8.03
2018-05-02T22:39:03.751Z,8.57
2018-05-02T22:41:33.076Z,10.07
2018-05-02T22:44:02.492Z,12.33
2018-05-02T22:46:32.040Z,11.03
2018-05-02T22:49:01.427Z,10.70
2018-05-02T22:51:30.854Z,10.33
2018-05-02T22:54:00.336Z,9.97
2018-05-02T22:56:29.689Z,8.90
2018-05-02T22:58:59.854Z,10.53
2018-05-02T23:01:29.204Z,14.10
2018-05-02T23:07:29.869Z,10.53
2018-05-02T23:09:59.480Z,10.90
2018-05-02T23:12:29.012Z,11.10
2018-05-02T23:14:58.725Z,7.33
2018-05-02T23:17:30.157Z,8.50
2018-05-02T23:19:59.873Z,12.20
2018-05-02T23:22:29.521Z,9.53
2018-05-02T23:25:00.042Z,13.00
2018-05-02T23:27:30.342Z,8.53
2018-05-02T23:30:00.075Z,9.10
2018-05-02T23:32:29.643Z,9.50
2018-05-02T23:34:59.253Z,12.50
2018-05-02T23:37:29.335Z,6.57
2018-05-02T23:39:58.816Z,13.53
2018-05-02T23:42:28.480Z,11.60
2018-05-02T23:44:59.133Z,13.60
2018-05-02T23:47:28.829Z,16.70
2018-05-02T23:50:00.250Z,14.33
2018-05-02T23:52:29.796Z,12.60
2018-05-02T23:54:59.453Z,12.17
2018-05-02T23:57:29.089Z,22.00
2018-05-02T23:59:58.615Z,21.37
